Estación de Monte Patria - Chilecito

Ultimos registro cada 15 minutos 58
Estación Fecha / Hora Temperatura Humedad Lluvia Velocidad Dirección Radiación Presion
58 Monte Patria - Chilecito 07-05-2026 14:15 24 27,3 0 0,5 284 424,4 939,4
57 Monte Patria - Chilecito 07-05-2026 14:00 24,4 24,9 0 0,5 298 274,4 939,6
56 Monte Patria - Chilecito 07-05-2026 13:45 24,5 26,5 0 0,5 274 580,6 939,8
55 Monte Patria - Chilecito 07-05-2026 13:30 24,9 29,1 0 0 288 589,4 940,1
54 Monte Patria - Chilecito 07-05-2026 13:15 24,4 32,7 0 0,5 302 594,4 940,1
53 Monte Patria - Chilecito 07-05-2026 13:00 23,3 33,9 0 0,5 340 596,9 940,2
52 Monte Patria - Chilecito 07-05-2026 12:45 24 34,5 0 0 329 603,1 940,6
51 Monte Patria - Chilecito 07-05-2026 12:30 23,1 37,9 0 0 321 608,1 940,9
50 Monte Patria - Chilecito 07-05-2026 12:15 23,8 40,9 0 0 330 596,9 941,1
49 Monte Patria - Chilecito 07-05-2026 12:00 23 43,5 0 0 327 589,4 941,3
48 Monte Patria - Chilecito 07-05-2026 11:45 22,4 49,6 0 0,5 348 573,1 941,6
47 Monte Patria - Chilecito 07-05-2026 11:30 21,9 49,6 0 0 323 458,1 941,9
46 Monte Patria - Chilecito 07-05-2026 11:15 21,7 51,3 0 0 314 49,4 941,9
45 Monte Patria - Chilecito 07-05-2026 11:00 22,6 49,2 0 0 305 49,4 942
44 Monte Patria - Chilecito 07-05-2026 10:45 21,3 53,1 0 0 299 323,1 942,3
43 Monte Patria - Chilecito 07-05-2026 10:30 20,5 57,7 0 0 296 476,9 942,5
42 Monte Patria - Chilecito 07-05-2026 10:15 20,4 58 0 0 327 448,1 942,6
41 Monte Patria - Chilecito 07-05-2026 10:00 19,7 64,3 0 0 25 415,6 942,9
40 Monte Patria - Chilecito 07-05-2026 09:45 17,7 68,6 0 0,5 25 383,1 942,8
39 Monte Patria - Chilecito 07-05-2026 09:30 16,8 73,1 0 1 22 41,9 943
38 Monte Patria - Chilecito 07-05-2026 09:15 16,8 72,7 0 0,5 320 40,6 943,2
37 Monte Patria - Chilecito 07-05-2026 09:00 17,5 74,7 0 0 307 276,9 943,3
36 Monte Patria - Chilecito 07-05-2026 08:45 16,4 81,9 0 0 310 59,4 943,4
35 Monte Patria - Chilecito 07-05-2026 08:30 14,7 91,2 0 0 310 198,1 943,3
34 Monte Patria - Chilecito 07-05-2026 08:15 13,5 94,2 0 0 310 138,1 943,4
33 Monte Patria - Chilecito 07-05-2026 08:00 11,7 94,5 0 0 310 23,1 943,3
32 Monte Patria - Chilecito 07-05-2026 07:45 12,2 94,5 0 0 310 9,4 943,2
31 Monte Patria - Chilecito 07-05-2026 07:30 12,4 94,5 0 0 310 4,4 943,3
30 Monte Patria - Chilecito 07-05-2026 07:15 12,3 94,4 0 0 310 0,6 943
29 Monte Patria - Chilecito 07-05-2026 07:00 12,2 94,1 0 0 310 0,6 943
28 Monte Patria - Chilecito 07-05-2026 06:45 12,3 94,2 0 0 310 0,6 942,9
27 Monte Patria - Chilecito 07-05-2026 06:30 12,4 94,2 0 0 310 0,6 942,6
26 Monte Patria - Chilecito 07-05-2026 06:15 12,4 93,9 0 0 310 0,6 942,5
25 Monte Patria - Chilecito 07-05-2026 06:00 12,7 93,9 0 0 310 0,6 942,5
24 Monte Patria - Chilecito 07-05-2026 05:45 12,7 94 0 0 310 0,6 942,3
23 Monte Patria - Chilecito 07-05-2026 05:30 12,7 94 0 0 310 0,6 942,2
22 Monte Patria - Chilecito 07-05-2026 05:15 12,8 94 0 0 310 0,6 941,9
21 Monte Patria - Chilecito 07-05-2026 05:00 12,7 94,1 0 0 310 0,6 942,2
20 Monte Patria - Chilecito 07-05-2026 04:45 12,6 94,1 0 0 310 0,6 942
19 Monte Patria - Chilecito 07-05-2026 04:30 12,6 94,1 0 0 310 0,6 941,9
18 Monte Patria - Chilecito 07-05-2026 04:15 12,5 94,2 0 0 310 0,6 941,8
17 Monte Patria - Chilecito 07-05-2026 04:00 12,1 93,9 0 0 310 0,6 941,7
16 Monte Patria - Chilecito 07-05-2026 03:45 12 93,6 0 0 310 0,6 941,6
15 Monte Patria - Chilecito 07-05-2026 03:30 12,1 93,4 0 0 310 0,6 941,5
14 Monte Patria - Chilecito 07-05-2026 03:15 12 93,3 0 0 310 0,6 941,5
13 Monte Patria - Chilecito 07-05-2026 03:00 12 92,8 0 0 310 0,6 941,7
12 Monte Patria - Chilecito 07-05-2026 02:45 12,3 92,7 0 0 310 0,6 941,8
11 Monte Patria - Chilecito 07-05-2026 02:30 12,3 92,4 0 0 310 0,6 941,8
10 Monte Patria - Chilecito 07-05-2026 02:15 12,6 91,8 0 0 310 0,6 941,7
9 Monte Patria - Chilecito 07-05-2026 02:00 12,7 91,7 0 0 310 0,6 941,8
8 Monte Patria - Chilecito 07-05-2026 01:45 12,9 91,5 0 0 310 0,6 941,7
7 Monte Patria - Chilecito 07-05-2026 01:30 12,9 91,4 0 0 310 0,6 941,8
6 Monte Patria - Chilecito 07-05-2026 01:15 13 91,2 0 0 310 0,6 941,9
5 Monte Patria - Chilecito 07-05-2026 01:00 13,1 90,9 0 0 310 0,6 941,9
4 Monte Patria - Chilecito 07-05-2026 00:45 13,1 90,7 0 0 309 0,6 941,8
3 Monte Patria - Chilecito 07-05-2026 00:30 13 90,2 0 0 309 0,6 941,6
2 Monte Patria - Chilecito 07-05-2026 00:15 13 89,7 0 0 309 0,6 941,6
1 Monte Patria - Chilecito 07-05-2026 00:00 13,2 88,3 0 0 309 0,6 941,5